sensor_id;sensor_type;location;lat;lon;timestamp;pressure;altitude;pressure_sealevel;temperature;humidity
52975;BME280;38839;45.186;5.720;2023-02-22T00:01:03;99185.22;;;9.22;71.33
52975;BME280;38839;45.186;5.720;2023-02-22T00:03:39;99185.22;;;9.22;71.49
52975;BME280;38839;45.186;5.720;2023-02-22T00:06:05;99186.13;;;9.27;71.27
52975;BME280;38839;45.186;5.720;2023-02-22T00:08:33;99180.03;;;9.29;71.33
52975;BME280;38839;45.186;5.720;2023-02-22T00:11:00;99182.66;;;9.30;71.29
52975;BME280;38839;45.186;5.720;2023-02-22T00:13:27;99185.28;;;9.33;71.43
52975;BME280;38839;45.186;5.720;2023-02-22T00:15:54;99186.13;;;9.32;71.41
52975;BME280;38839;45.186;5.720;2023-02-22T00:18:19;99182.66;;;9.27;71.47
52975;BME280;38839;45.186;5.720;2023-02-22T00:20:45;99187.88;;;9.30;71.38
52975;BME280;38839;45.186;5.720;2023-02-22T00:23:16;99191.34;;;9.32;71.55
52975;BME280;38839;45.186;5.720;2023-02-22T00:25:46;99185.25;;;9.35;71.50
52975;BME280;38839;45.186;5.720;2023-02-22T00:28:11;99187.03;;;9.36;71.61
52975;BME280;38839;45.186;5.720;2023-02-22T00:30:37;99190.47;;;9.36;71.58
52975;BME280;38839;45.186;5.720;2023-02-22T00:33:03;99198.31;;;9.38;71.70
52975;BME280;38839;45.186;5.720;2023-02-22T00:35:30;99193.06;;;9.35;71.73
52975;BME280;38839;45.186;5.720;2023-02-22T00:37:58;99191.34;;;9.38;71.86
52975;BME280;38839;45.186;5.720;2023-02-22T00:40:26;99193.97;;;9.34;71.98
52975;BME280;38839;45.186;5.720;2023-02-22T00:42:55;99187.88;;;9.30;72.06
52975;BME280;38839;45.186;5.720;2023-02-22T00:45:23;99186.13;;;9.23;72.33
52975;BME280;38839;45.186;5.720;2023-02-22T00:47:50;99188.72;;;9.17;72.41
52975;BME280;38839;45.186;5.720;2023-02-22T00:50:16;99188.69;;;9.09;72.99
52975;BME280;38839;45.186;5.720;2023-02-22T00:52:42;99192.13;;;9.08;73.15
52975;BME280;38839;45.186;5.720;2023-02-22T00:55:09;99190.38;;;9.04;73.31
52975;BME280;38839;45.186;5.720;2023-02-22T00:57:35;99188.63;;;9.00;73.50
52975;BME280;38839;45.186;5.720;2023-02-22T01:00:06;99191.25;;;9.03;73.65
52975;BME280;38839;45.186;5.720;2023-02-22T01:02:41;99181.69;;;8.99;73.75
52975;BME280;38839;45.186;5.720;2023-02-22T01:05:09;99185.16;;;8.96;73.87
52975;BME280;38839;45.186;5.720;2023-02-22T01:07:37;99197.28;;;8.91;74.04
52975;BME280;38839;45.186;5.720;2023-02-22T01:10:03;99191.19;;;8.88;74.20
52975;BME280;38839;45.186;5.720;2023-02-22T01:12:28;99189.44;;;8.90;74.21
52975;BME280;38839;45.186;5.720;2023-02-22T01:14:54;99187.72;;;8.89;74.43
52975;BME280;38839;45.186;5.720;2023-02-22T01:17:22;99184.25;;;8.85;74.59
52975;BME280;38839;45.186;5.720;2023-02-22T01:19:47;99185.97;;;8.88;74.35
52975;BME280;38839;45.186;5.720;2023-02-22T01:22:13;99183.38;;;8.84;74.63
52975;BME280;38839;45.186;5.720;2023-02-22T01:24:39;99176.44;;;8.85;74.90
52975;BME280;38839;45.186;5.720;2023-02-22T01:27:04;99178.19;;;8.84;75.14
52975;BME280;38839;45.186;5.720;2023-02-22T01:29:29;99172.13;;;8.89;75.33
52975;BME280;38839;45.186;5.720;2023-02-22T01:31:55;99185.13;;;8.89;75.54
52975;BME280;38839;45.186;5.720;2023-02-22T01:34:22;99181.66;;;8.86;76.13
52975;BME280;38839;45.186;5.720;2023-02-22T01:36:48;99177.31;;;8.89;76.09
52975;BME280;38839;45.186;5.720;2023-02-22T01:39:14;99176.44;;;8.90;75.69
52975;BME280;38839;45.186;5.720;2023-02-22T01:41:42;99178.22;;;8.92;75.64
52975;BME280;38839;45.186;5.720;2023-02-22T01:44:28;99176.47;;;8.93;75.01
52975;BME280;38839;45.186;5.720;2023-02-22T01:46:55;99173.84;;;8.86;74.21
52975;BME280;38839;45.186;5.720;2023-02-22T01:49:23;99177.28;;;8.85;73.64
52975;BME280;38839;45.186;5.720;2023-02-22T01:51:52;99170.38;;;8.86;73.37
52975;BME280;38839;45.186;5.720;2023-02-22T01:54:21;99171.22;;;8.85;73.33
52975;BME280;38839;45.186;5.720;2023-02-22T01:57:22;99168.63;;;8.90;72.24
52975;BME280;38839;45.186;5.720;2023-02-22T01:59:52;99166.91;;;8.82;72.48
52975;BME280;38839;45.186;5.720;2023-02-22T02:02:20;99163.44;;;8.85;72.38
52975;BME280;38839;45.186;5.720;2023-02-22T02:04:50;99162.53;;;8.81;72.12
52975;BME280;38839;45.186;5.720;2023-02-22T02:07:18;99163.34;;;8.71;71.92
52975;BME280;38839;45.186;5.720;2023-02-22T02:10:02;99160.72;;;8.65;72.12
52975;BME280;38839;45.186;5.720;2023-02-22T02:12:30;99162.50;;;8.72;72.17
52975;BME280;38839;45.186;5.720;2023-02-22T02:17:49;99165.13;;;8.77;72.08
52975;BME280;38839;45.186;5.720;2023-02-22T02:29:02;99164.22;;;8.73;75.52
52975;BME280;38839;45.186;5.720;2023-02-22T02:34:15;99157.31;;;8.72;75.50
52975;BME280;38839;45.186;5.720;2023-02-22T02:36:48;99154.69;;;8.68;75.54
52975;BME280;38839;45.186;5.720;2023-02-22T02:39:30;99139.06;;;8.60;76.43
52975;BME280;38839;45.186;5.720;2023-02-22T02:42:03;99135.56;;;8.53;76.62
52975;BME280;38839;45.186;5.720;2023-02-22T02:44:36;99135.56;;;8.53;76.77
52975;BME280;38839;45.186;5.720;2023-02-22T02:47:30;99143.28;;;8.42;77.84
52975;BME280;38839;45.186;5.720;2023-02-22T02:50:08;99138.91;;;8.38;77.67
52975;BME280;38839;45.186;5.720;2023-02-22T02:52:36;99138.06;;;8.39;77.48
52975;BME280;38839;45.186;5.720;2023-02-22T02:55:04;99129.38;;;8.37;77.71
52975;BME280;38839;45.186;5.720;2023-02-22T02:57:30;99139.78;;;8.37;77.89
52975;BME280;38839;45.186;5.720;2023-02-22T02:59:56;99134.56;;;8.40;77.93
52975;BME280;38839;45.186;5.720;2023-02-22T03:02:53;99136.38;;;8.41;77.88
52975;BME280;38839;45.186;5.720;2023-02-22T03:05:47;99131.97;;;8.36;78.03
52975;BME280;38839;45.186;5.720;2023-02-22T03:11:08;99137.94;;;8.24;78.02
52975;BME280;38839;45.186;5.720;2023-02-22T03:14:04;99137.94;;;8.21;77.12
52975;BME280;38839;45.186;5.720;2023-02-22T03:21:48;99136.19;;;8.20;75.25
52975;BME280;38839;45.186;5.720;2023-02-22T03:24:30;99143.13;;;8.19;74.75
52975;BME280;38839;45.186;5.720;2023-02-22T03:27:11;99140.50;;;8.13;74.52
52975;BME280;38839;45.186;5.720;2023-02-22T03:29:41;99134.44;;;8.13;74.75
52975;BME280;38839;45.186;5.720;2023-02-22T03:32:10;99138.75;;;8.14;74.11
52975;BME280;38839;45.186;5.720;2023-02-22T03:34:45;99143.03;;;8.04;73.31
52975;BME280;38839;45.186;5.720;2023-02-22T03:37:26;99137.91;;;8.15;73.15
52975;BME280;38839;45.186;5.720;2023-02-22T03:39:53;99147.44;;;8.14;72.73
52975;BME280;38839;45.186;5.720;2023-02-22T03:42:27;99142.25;;;8.19;72.69
52975;BME280;38839;45.186;5.720;2023-02-22T03:44:54;99150.91;;;8.19;72.23
52975;BME280;38839;45.186;5.720;2023-02-22T03:47:27;99149.13;;;8.09;71.96
52975;BME280;38839;45.186;5.720;2023-02-22T03:50:02;99155.13;;;8.00;72.32
52975;BME280;38839;45.186;5.720;2023-02-22T03:52:32;99150.84;;;8.09;72.02
52975;BME280;38839;45.186;5.720;2023-02-22T03:54:59;99142.19;;;8.08;71.77
52975;BME280;38839;45.186;5.720;2023-02-22T03:57:37;99147.41;;;8.08;71.87
52975;BME280;38839;45.186;5.720;2023-02-22T04:00:06;99147.44;;;8.13;71.68
52975;BME280;38839;45.186;5.720;2023-02-22T04:02:31;99154.28;;;8.03;71.73
52975;BME280;38839;45.186;5.720;2023-02-22T04:04:57;99149.97;;;8.06;71.86
52975;BME280;38839;45.186;5.720;2023-02-22T04:07:22;99147.41;;;8.11;71.84
52975;BME280;38839;45.186;5.720;2023-02-22T04:09:48;99152.59;;;8.08;71.86
52975;BME280;38839;45.186;5.720;2023-02-22T04:12:13;99156.94;;;8.12;71.83
52975;BME280;38839;45.186;5.720;2023-02-22T04:14:39;99144.78;;;8.06;71.91
52975;BME280;38839;45.186;5.720;2023-02-22T04:17:04;99144.69;;;7.94;72.00
52975;BME280;38839;45.186;5.720;2023-02-22T04:19:29;99146.38;;;7.86;72.45
52975;BME280;38839;45.186;5.720;2023-02-22T04:21:55;99149.81;;;7.85;72.57
52975;BME280;38839;45.186;5.720;2023-02-22T04:24:20;99149.03;;;7.95;72.39
52975;BME280;38839;45.186;5.720;2023-02-22T04:26:45;99148.97;;;7.89;72.71
52975;BME280;38839;45.186;5.720;2023-02-22T04:29:11;99151.59;;;7.91;72.63
52975;BME280;38839;45.186;5.720;2023-02-22T04:31:36;99156.72;;;7.83;72.87
52975;BME280;38839;45.186;5.720;2023-02-22T04:34:02;99156.72;;;7.81;72.92
52975;BME280;38839;45.186;5.720;2023-02-22T04:36:28;99149.59;;;7.60;74.26
52975;BME280;38839;45.186;5.720;2023-02-22T04:38:56;99158.06;;;7.38;77.03
52975;BME280;38839;45.186;5.720;2023-02-22T04:41:22;99158.88;;;7.31;76.92
52975;BME280;38839;45.186;5.720;2023-02-22T04:43:47;99165.59;;;7.13;77.93
52975;BME280;38839;45.186;5.720;2023-02-22T04:46:12;99169.88;;;7.08;78.21
52975;BME280;38839;45.186;5.720;2023-02-22T04:48:38;99166.41;;;7.09;77.44
52975;BME280;38839;45.186;5.720;2023-02-22T04:51:04;99169.78;;;7.00;78.20
52975;BME280;38839;45.186;5.720;2023-02-22T04:53:29;99168.84;;;6.97;78.76
52975;BME280;38839;45.186;5.720;2023-02-22T04:55:55;99170.50;;;6.90;79.62
52975;BME280;38839;45.186;5.720;2023-02-22T04:58:20;99173.97;;;6.89;79.77
52975;BME280;38839;45.186;5.720;2023-02-22T05:00:46;99182.03;;;7.12;78.16
52975;BME280;38839;45.186;5.720;2023-02-22T05:03:11;99172.66;;;7.27;77.63
52975;BME280;38839;45.186;5.720;2023-02-22T05:05:37;99169.31;;;7.37;77.27
52975;BME280;38839;45.186;5.720;2023-02-22T05:08:03;99166.72;;;7.40;76.95
52975;BME280;38839;45.186;5.720;2023-02-22T05:10:28;99166.72;;;7.40;76.95
52975;BME280;38839;45.186;5.720;2023-02-22T05:12:53;99166.75;;;7.43;77.11
52975;BME280;38839;45.186;5.720;2023-02-22T05:15:20;99176.16;;;7.32;77.92
52975;BME280;38839;45.186;5.720;2023-02-22T05:17:46;99173.53;;;7.29;78.16
52975;BME280;38839;45.186;5.720;2023-02-22T05:20:26;99168.34;;;7.29;78.01
52975;BME280;38839;45.186;5.720;2023-02-22T05:22:53;99169.25;;;7.32;78.17
52975;BME280;38839;45.186;5.720;2023-02-22T05:25:19;99167.63;;;7.40;77.79
52975;BME280;38839;45.186;5.720;2023-02-22T05:27:49;99169.44;;;7.51;77.30
52975;BME280;38839;45.186;5.720;2023-02-22T05:30:14;99159.81;;;7.42;78.19
52975;BME280;38839;45.186;5.720;2023-02-22T05:32:40;99159.81;;;7.40;78.53
52975;BME280;38839;45.186;5.720;2023-02-22T05:35:06;99158.03;;;7.35;78.67
52975;BME280;38839;45.186;5.720;2023-02-22T05:37:32;99153.75;;;7.38;79.18
52975;BME280;38839;45.186;5.720;2023-02-22T05:39:58;99154.59;;;7.37;79.72
52975;BME280;38839;45.186;5.720;2023-02-22T05:42:23;99156.31;;;7.37;79.91
52975;BME280;38839;45.186;5.720;2023-02-22T05:44:49;99152.84;;;7.38;79.52
52975;BME280;38839;45.186;5.720;2023-02-22T05:47:14;99148.56;;;7.40;79.70
52975;BME280;38839;45.186;5.720;2023-02-22T05:49:39;99143.41;;;7.46;79.54
52975;BME280;38839;45.186;5.720;2023-02-22T05:52:05;99146.91;;;7.47;79.36
52975;BME280;38839;45.186;5.720;2023-02-22T05:54:32;99152.97;;;7.47;79.60
52975;BME280;38839;45.186;5.720;2023-02-22T05:56:58;99146.06;;;7.49;79.30
52975;BME280;38839;45.186;5.720;2023-02-22T05:59:23;99146.94;;;7.51;79.31
52975;BME280;38839;45.186;5.720;2023-02-22T06:01:49;99153.03;;;7.56;79.04
52975;BME280;38839;45.186;5.720;2023-02-22T06:04:14;99161.69;;;7.58;78.54
52975;BME280;38839;45.186;5.720;2023-02-22T06:06:39;99155.66;;;7.58;78.67
52975;BME280;38839;45.186;5.720;2023-02-22T06:09:05;99151.34;;;7.57;78.69
52975;BME280;38839;45.186;5.720;2023-02-22T06:11:30;99162.53;;;7.53;78.46
52975;BME280;38839;45.186;5.720;2023-02-22T06:13:55;99161.63;;;7.49;78.36
52975;BME280;38839;45.186;5.720;2023-02-22T06:16:21;99166.81;;;7.49;78.35
52975;BME280;38839;45.186;5.720;2023-02-22T06:18:47;99163.34;;;7.50;78.69
52975;BME280;38839;45.186;5.720;2023-02-22T06:21:12;99163.34;;;7.50;79.21
52975;BME280;38839;45.186;5.720;2023-02-22T06:23:38;99158.25;;;7.58;79.22
52975;BME280;38839;45.186;5.720;2023-02-22T06:26:03;99164.31;;;7.58;78.85
52975;BME280;38839;45.186;5.720;2023-02-22T06:28:29;99167.72;;;7.54;79.46
52975;BME280;38839;45.186;5.720;2023-02-22T06:30:54;99174.69;;;7.57;79.35
52975;BME280;38839;45.186;5.720;2023-02-22T06:33:19;99170.44;;;7.68;78.78
52975;BME280;38839;45.186;5.720;2023-02-22T06:35:45;99183.63;;;7.90;78.20
52975;BME280;38839;45.186;5.720;2023-02-22T06:38:11;99181.06;;;7.94;77.85
52975;BME280;38839;45.186;5.720;2023-02-22T06:40:36;99185.41;;;7.97;77.43
52975;BME280;38839;45.186;5.720;2023-02-22T06:43:02;99189.75;;;7.99;77.34
52975;BME280;38839;45.186;5.720;2023-02-22T06:45:27;99188.88;;;7.96;77.49
52975;BME280;38839;45.186;5.720;2023-02-22T06:47:53;99194.97;;;8.02;77.15
52975;BME280;38839;45.186;5.720;2023-02-22T06:50:29;99196.75;;;8.06;76.96
52975;BME280;38839;45.186;5.720;2023-02-22T06:52:55;99196.75;;;8.10;76.98
52975;BME280;38839;45.186;5.720;2023-02-22T06:55:25;99196.66;;;7.97;77.16
52975;BME280;38839;45.186;5.720;2023-02-22T06:57:50;99201.84;;;7.97;77.40
52975;BME280;38839;45.186;5.720;2023-02-22T07:00:18;99202.78;;;8.05;77.21
52975;BME280;38839;45.186;5.720;2023-02-22T07:02:44;99201.94;;;8.05;77.12
52975;BME280;38839;45.186;5.720;2023-02-22T07:05:11;99203.66;;;8.04;77.13
52975;BME280;38839;45.186;5.720;2023-02-22T07:07:37;99207.13;;;8.06;76.97
52975;BME280;38839;45.186;5.720;2023-02-22T07:10:05;99206.25;;;8.07;76.71
52975;BME280;38839;45.186;5.720;2023-02-22T07:12:32;99209.78;;;8.13;76.30
52975;BME280;38839;45.186;5.720;2023-02-22T07:14:57;99216.75;;;8.20;75.71
52975;BME280;38839;45.186;5.720;2023-02-22T07:17:23;99214.25;;;8.29;75.19
52975;BME280;38839;45.186;5.720;2023-02-22T07:19:48;99220.19;;;8.16;74.83
52975;BME280;38839;45.186;5.720;2023-02-22T07:22:14;99219.31;;;8.14;75.70
52975;BME280;38839;45.186;5.720;2023-02-22T07:24:39;99222.88;;;8.28;75.52
52975;BME280;38839;45.186;5.720;2023-02-22T07:27:05;99228.13;;;8.31;75.17
52975;BME280;38839;45.186;5.720;2023-02-22T07:29:30;99226.50;;;8.41;75.02
52975;BME280;38839;45.186;5.720;2023-02-22T07:31:56;99238.56;;;8.39;74.75
52975;BME280;38839;45.186;5.720;2023-02-22T07:34:23;99236.84;;;8.39;74.65
52975;BME280;38839;45.186;5.720;2023-02-22T07:36:48;99235.16;;;8.43;74.52
52975;BME280;38839;45.186;5.720;2023-02-22T07:39:13;99221.19;;;8.36;74.23
52975;BME280;38839;45.186;5.720;2023-02-22T07:41:39;99223.69;;;8.16;74.44
52975;BME280;38839;45.186;5.720;2023-02-22T07:44:04;99226.16;;;8.05;75.97
52975;BME280;38839;45.186;5.720;2023-02-22T07:46:30;99215.78;;;8.02;76.17
52975;BME280;38839;45.186;5.720;2023-02-22T07:48:55;99213.03;;;7.87;77.02
52975;BME280;38839;45.186;5.720;2023-02-22T07:51:20;99221.63;;;7.78;77.55
52975;BME280;38839;45.186;5.720;2023-02-22T07:53:47;99221.97;;;8.21;76.18
52975;BME280;38839;45.186;5.720;2023-02-22T07:56:12;99229.13;;;8.45;75.15
52975;BME280;38839;45.186;5.720;2023-02-22T07:58:37;99226.59;;;8.58;74.39
52975;BME280;38839;45.186;5.720;2023-02-22T08:01:03;99221.47;;;8.72;74.36
52975;BME280;38839;45.186;5.720;2023-02-22T08:03:31;99231.91;;;8.79;74.25
52975;BME280;38839;45.186;5.720;2023-02-22T08:05:58;99216.28;;;8.79;73.84
52975;BME280;38839;45.186;5.720;2023-02-22T08:08:24;99225.00;;;8.84;73.78
52975;BME280;38839;45.186;5.720;2023-02-22T08:10:51;99230.19;;;8.88;73.65
52975;BME280;38839;45.186;5.720;2023-02-22T08:13:17;99226.78;;;8.98;73.32
52975;BME280;38839;45.186;5.720;2023-02-22T08:15:42;99224.19;;;8.98;73.31
52975;BME280;38839;45.186;5.720;2023-02-22T08:18:14;99225.13;;;9.09;73.03
52975;BME280;38839;45.186;5.720;2023-02-22T08:20:41;99223.38;;;9.11;72.52
52975;BME280;38839;45.186;5.720;2023-02-22T08:23:09;99232.09;;;9.19;72.42
52975;BME280;38839;45.186;5.720;2023-02-22T08:25:36;99234.72;;;9.32;71.94
52975;BME280;38839;45.186;5.720;2023-02-22T08:28:08;99220.00;;;9.40;71.73
52975;BME280;38839;45.186;5.720;2023-02-22T08:30:35;99228.66;;;9.39;71.55
52975;BME280;38839;45.186;5.720;2023-02-22T08:33:02;99229.56;;;9.39;71.90
52975;BME280;38839;45.186;5.720;2023-02-22T08:35:29;99227.84;;;9.46;71.51
52975;BME280;38839;45.186;5.720;2023-02-22T08:37:58;99239.94;;;9.30;72.14
52975;BME280;38839;45.186;5.720;2023-02-22T08:40:26;99242.50;;;9.22;71.89
52975;BME280;38839;45.186;5.720;2023-02-22T08:42:52;99242.56;;;9.38;71.92
52975;BME280;38839;45.186;5.720;2023-02-22T08:45:17;99239.06;;;9.25;72.23
52975;BME280;38839;45.186;5.720;2023-02-22T08:47:43;99235.59;;;9.31;72.25
52975;BME280;38839;45.186;5.720;2023-02-22T08:50:15;99250.38;;;9.36;71.69
52975;BME280;38839;45.186;5.720;2023-02-22T08:52:41;99250.31;;;9.19;72.08
52975;BME280;38839;45.186;5.720;2023-02-22T08:55:06;99248.47;;;9.00;72.92
52975;BME280;38839;45.186;5.720;2023-02-22T08:57:32;99245.00;;;8.99;73.58
52975;BME280;38839;45.186;5.720;2023-02-22T08:59:57;99245.03;;;9.04;73.18
52975;BME280;38839;45.186;5.720;2023-02-22T09:02:23;99256.38;;;9.15;73.10
52975;BME280;38839;45.186;5.720;2023-02-22T09:04:50;99250.38;;;9.38;72.27
52975;BME280;38839;45.186;5.720;2023-02-22T09:07:16;99254.75;;;9.48;71.80
52975;BME280;38839;45.186;5.720;2023-02-22T09:09:43;99242.59;;;9.55;71.67
52975;BME280;38839;45.186;5.720;2023-02-22T09:12:10;99250.44;;;9.67;70.96
52975;BME280;38839;45.186;5.720;2023-02-22T09:14:35;99249.59;;;9.79;70.84
52975;BME280;38839;45.186;5.720;2023-02-22T09:17:01;99243.50;;;9.80;70.80
52975;BME280;38839;45.186;5.720;2023-02-22T09:19:26;99221.81;;;9.90;70.63
52975;BME280;38839;45.186;5.720;2023-02-22T09:21:53;99227.03;;;10.02;70.13
52975;BME280;38839;45.186;5.720;2023-02-22T09:24:19;99227.03;;;10.05;70.06
52975;BME280;38839;45.186;5.720;2023-02-22T09:26:48;99227.91;;;10.11;69.98
52975;BME280;38839;45.186;5.720;2023-02-22T09:29:22;99224.44;;;10.22;69.70
52975;BME280;38839;45.186;5.720;2023-02-22T09:31:49;99227.91;;;10.23;69.32
52975;BME280;38839;45.186;5.720;2023-02-22T09:34:15;99226.16;;;10.26;69.38
52975;BME280;38839;45.186;5.720;2023-02-22T09:36:43;99225.31;;;10.20;69.69
52975;BME280;38839;45.186;5.720;2023-02-22T09:39:10;99220.09;;;10.09;69.62
52975;BME280;38839;45.186;5.720;2023-02-22T09:44:43;99233.09;;;9.87;70.58
52975;BME280;38839;45.186;5.720;2023-02-22T09:47:15;99233.94;;;9.76;70.70
52975;BME280;38839;45.186;5.720;2023-02-22T09:49:59;99233.97;;;9.88;70.42
52975;BME280;38839;45.186;5.720;2023-02-22T09:52:39;99225.28;;;9.80;70.78
52975;BME280;38839;45.186;5.720;2023-02-22T09:58:02;99224.41;;;9.67;71.23
52975;BME280;38839;45.186;5.720;2023-02-22T10:00:31;99215.75;;;9.86;70.75
52975;BME280;38839;45.186;5.720;2023-02-22T10:05:46;99225.28;;;10.17;69.79
52975;BME280;38839;45.186;5.720;2023-02-22T10:08:15;99228.75;;;10.25;69.58
52975;BME280;38839;45.186;5.720;2023-02-22T10:10:43;99220.94;;;10.14;70.22
52975;BME280;38839;45.186;5.720;2023-02-22T10:15:53;99222.72;;;9.97;70.41
52975;BME280;38839;45.186;5.720;2023-02-22T10:21:43;99216.63;;;9.99;71.14
52975;BME280;38839;45.186;5.720;2023-02-22T10:24:27;99228.78;;;10.28;70.34
52975;BME280;38839;45.186;5.720;2023-02-22T10:26:57;99228.78;;;10.53;69.33
52975;BME280;38839;45.186;5.720;2023-02-22T10:29:39;99226.19;;;10.39;69.48
52975;BME280;38839;45.186;5.720;2023-02-22T10:32:18;99236.59;;;10.53;69.20
52975;BME280;38839;45.186;5.720;2023-02-22T10:34:47;99238.31;;;10.67;68.89
52975;BME280;38839;45.186;5.720;2023-02-22T10:37:32;99229.63;;;10.69;68.84
52975;BME280;38839;45.186;5.720;2023-02-22T10:40:16;99228.78;;;10.53;69.01
52975;BME280;38839;45.186;5.720;2023-02-22T10:42:43;99221.81;;;10.39;69.79
52975;BME280;38839;45.186;5.720;2023-02-22T10:45:27;99222.69;;;10.41;69.95
52975;BME280;38839;45.186;5.720;2023-02-22T10:47:55;99225.28;;;10.63;69.27
52975;BME280;38839;45.186;5.720;2023-02-22T10:50:24;99227.00;;;10.67;69.34
52975;BME280;38839;45.186;5.720;2023-02-22T10:52:50;99220.88;;;10.80;68.65
52975;BME280;38839;45.186;5.720;2023-02-22T10:55:16;99220.00;;;10.87;68.65
52975;BME280;38839;45.186;5.720;2023-02-22T10:57:44;99219.97;;;10.94;68.15
52975;BME280;38839;45.186;5.720;2023-02-22T11:00:21;99219.09;;;10.96;68.21
52975;BME280;38839;45.186;5.720;2023-02-22T11:02:56;99216.44;;;11.04;67.86
52975;BME280;38839;45.186;5.720;2023-02-22T11:05:34;99214.78;;;10.81;68.26
52975;BME280;38839;45.186;5.720;2023-02-22T11:10:45;99206.91;;;10.92;68.13
52975;BME280;38839;45.186;5.720;2023-02-22T11:16:00;99205.09;;;11.11;67.52
52975;BME280;38839;45.186;5.720;2023-02-22T11:18:36;99200.72;;;11.16;67.23
52975;BME280;38839;45.186;5.720;2023-02-22T11:21:10;99205.03;;;11.25;66.91
52975;BME280;38839;45.186;5.720;2023-02-22T11:23:38;99198.06;;;11.27;66.79
52975;BME280;38839;45.186;5.720;2023-02-22T11:26:17;99191.94;;;11.31;66.56
52975;BME280;38839;45.186;5.720;2023-02-22T11:28:53;99195.44;;;11.25;66.58
52975;BME280;38839;45.186;5.720;2023-02-22T11:31:27;99186.78;;;11.19;66.68
52975;BME280;38839;45.186;5.720;2023-02-22T11:33:54;99183.34;;;11.12;66.90
52975;BME280;38839;45.186;5.720;2023-02-22T11:36:38;99181.59;;;11.11;66.79
52975;BME280;38839;45.186;5.720;2023-02-22T11:39:33;99182.47;;;11.15;66.38
52975;BME280;38839;45.186;5.720;2023-02-22T11:42:19;99176.38;;;11.14;66.39
52975;BME280;38839;45.186;5.720;2023-02-22T11:44:46;99174.63;;;11.13;66.54
52975;BME280;38839;45.186;5.720;2023-02-22T11:47:12;99164.22;;;11.07;66.30
52975;BME280;38839;45.186;5.720;2023-02-22T11:49:41;99157.19;;;11.17;66.03
52975;BME280;38839;45.186;5.720;2023-02-22T11:52:23;99156.31;;;11.21;65.41
52975;BME280;38839;45.186;5.720;2023-02-22T12:11:04;99124.09;;;12.30;61.75
52975;BME280;38839;45.186;5.720;2023-02-22T12:16:20;99118.91;;;12.28;61.88
52975;BME280;38839;45.186;5.720;2023-02-22T12:19:10;99116.38;;;12.19;62.14
52975;BME280;38839;45.186;5.720;2023-02-22T12:21:42;99111.19;;;12.13;62.64
52975;BME280;38839;45.186;5.720;2023-02-22T12:24:14;99112.19;;;12.01;63.01
52975;BME280;38839;45.186;5.720;2023-02-22T12:26:54;99107.84;;;11.97;63.22
52975;BME280;38839;45.186;5.720;2023-02-22T12:29:32;99106.09;;;12.02;63.06
52975;BME280;38839;45.186;5.720;2023-02-22T12:35:19;99112.03;;;12.18;62.67
52975;BME280;38839;45.186;5.720;2023-02-22T12:40:46;99101.44;;;12.29;62.31
52975;BME280;38839;45.186;5.720;2023-02-22T12:43:41;99100.38;;;12.45;61.94
52975;BME280;38839;45.186;5.720;2023-02-22T12:49:04;99096.78;;;12.56;61.74
52975;BME280;38839;45.186;5.720;2023-02-22T12:57:08;99083.47;;;12.74;61.06
52975;BME280;38839;45.186;5.720;2023-02-22T12:59:51;99085.88;;;12.89;60.86
52975;BME280;38839;45.186;5.720;2023-02-22T13:02:31;99085.00;;;12.91;60.61
52975;BME280;38839;45.186;5.720;2023-02-22T13:05:00;99079.59;;;13.03;60.53
52975;BME280;38839;45.186;5.720;2023-02-22T13:07:50;99078.84;;;12.92;60.54
52975;BME280;38839;45.186;5.720;2023-02-22T13:10:45;99086.75;;;12.90;60.66
52975;BME280;38839;45.186;5.720;2023-02-22T13:15:52;99078.91;;;12.90;60.94
52975;BME280;38839;45.186;5.720;2023-02-22T13:18:27;99076.22;;;12.92;60.72
52975;BME280;38839;45.186;5.720;2023-02-22T13:21:07;99079.91;;;12.80;61.00
52975;BME280;38839;45.186;5.720;2023-02-22T13:26:59;99085.84;;;12.93;61.01
52975;BME280;38839;45.186;5.720;2023-02-22T13:29:11;99085.78;;;12.96;60.89
52975;BME280;38839;45.186;5.720;2023-02-22T13:40:42;99070.38;;;12.73;61.72
52975;BME280;38839;45.186;5.720;2023-02-22T13:51:53;99066.69;;;12.87;61.54
52975;BME280;38839;45.186;5.720;2023-02-22T13:54:35;99059.63;;;12.94;61.43
52975;BME280;38839;45.186;5.720;2023-02-22T13:57:03;99056.13;;;12.94;61.21
52975;BME280;38839;45.186;5.720;2023-02-22T13:59:41;99059.06;;;12.71;61.73
52975;BME280;38839;45.186;5.720;2023-02-22T14:02:30;99055.69;;;12.62;62.30
52975;BME280;38839;45.186;5.720;2023-02-22T14:04:56;99057.44;;;12.62;62.19
52975;BME280;38839;45.186;5.720;2023-02-22T14:09:55;99051.91;;;12.85;61.72
52975;BME280;38839;45.186;5.720;2023-02-22T14:17:46;99050.47;;;12.62;62.57
52975;BME280;38839;45.186;5.720;2023-02-22T14:22:44;99049.25;;;12.88;61.98
52975;BME280;38839;45.186;5.720;2023-02-22T14:25:39;99049.44;;;12.74;62.46
52975;BME280;38839;45.186;5.720;2023-02-22T14:28:36;99050.59;;;12.53;62.95
52975;BME280;38839;45.186;5.720;2023-02-22T14:31:10;99045.16;;;12.67;62.63
52975;BME280;38839;45.186;5.720;2023-02-22T14:39:19;99040.41;;;12.94;61.72
52975;BME280;38839;45.186;5.720;2023-02-22T14:47:17;99037.94;;;12.86;62.38
52975;BME280;38839;45.186;5.720;2023-02-22T14:49:46;99035.59;;;12.63;62.72
52975;BME280;38839;45.186;5.720;2023-02-22T14:52:20;99028.59;;;12.65;62.73
52975;BME280;38839;45.186;5.720;2023-02-22T14:54:53;99034.91;;;12.52;62.96
52975;BME280;38839;45.186;5.720;2023-02-22T14:57:27;99030.63;;;12.44;63.52
52975;BME280;38839;45.186;5.720;2023-02-22T15:02:49;99029.44;;;12.67;62.98
52975;BME280;38839;45.186;5.720;2023-02-22T15:05:17;99023.34;;;12.68;63.00
52975;BME280;38839;45.186;5.720;2023-02-22T15:07:54;99038.13;;;12.71;62.85
52975;BME280;38839;45.186;5.720;2023-02-22T15:10:26;99030.34;;;12.66;63.07
52975;BME280;38839;45.186;5.720;2023-02-22T15:13:01;99021.59;;;12.67;63.23
52975;BME280;38839;45.186;5.720;2023-02-22T15:15:37;99011.88;;;12.77;62.90
52975;BME280;38839;45.186;5.720;2023-02-22T15:18:10;99016.91;;;12.92;62.46
52975;BME280;38839;45.186;5.720;2023-02-22T15:20:41;99010.69;;;12.98;62.46
52975;BME280;38839;45.186;5.720;2023-02-22T15:23:06;99007.94;;;13.07;62.17
52975;BME280;38839;45.186;5.720;2023-02-22T15:25:32;99009.16;;;12.84;62.73